sensor_id;sensor_type;location;lat;lon;timestamp;pressure;altitude;pressure_sealevel;temperature;humidity
13050;BME280;6591;51.446;5.404;2023-02-12T00:01:23;103531.47;;;15.32;48.17
13050;BME280;6591;51.446;5.404;2023-02-12T00:03:50;103527.91;;;15.33;48.40
13050;BME280;6591;51.446;5.404;2023-02-12T00:06:18;103523.38;;;15.35;48.39
13050;BME280;6591;51.446;5.404;2023-02-12T00:08:53;103521.66;;;15.33;48.37
13050;BME280;6591;51.446;5.404;2023-02-12T00:11:26;103520.72;;;15.34;48.45
13050;BME280;6591;51.446;5.404;2023-02-12T00:13:55;103516.25;;;15.34;48.44
13050;BME280;6591;51.446;5.404;2023-02-12T00:16:26;103526.06;;;15.34;48.45
13050;BME280;6591;51.446;5.404;2023-02-12T00:18:57;103520.72;;;15.34;48.18
13050;BME280;6591;51.446;5.404;2023-02-12T00:21:25;103515.38;;;15.34;48.21
13050;BME280;6591;51.446;5.404;2023-02-12T00:23:52;103531.44;;;15.34;48.24
13050;BME280;6591;51.446;5.404;2023-02-12T00:26:21;103519.88;;;15.32;47.94
13050;BME280;6591;51.446;5.404;2023-02-12T00:28:50;103512.78;;;15.29;48.14
13050;BME280;6591;51.446;5.404;2023-02-12T00:31:24;103520.88;;;15.27;48.33
13050;BME280;6591;51.446;5.404;2023-02-12T00:33:55;103525.34;;;15.27;48.25
13050;BME280;6591;51.446;5.404;2023-02-12T00:36:26;103527.16;;;15.25;48.28
13050;BME280;6591;51.446;5.404;2023-02-12T00:38:55;103528.06;;;15.25;48.10
13050;BME280;6591;51.446;5.404;2023-02-12T00:41:24;103524.47;;;15.26;48.34
13050;BME280;6591;51.446;5.404;2023-02-12T00:43:52;103528.94;;;15.26;48.40
13050;BME280;6591;51.446;5.404;2023-02-12T00:46:19;103522.69;;;15.25;48.24
13050;BME280;6591;51.446;5.404;2023-02-12T00:48:46;103522.81;;;15.19;48.40
13050;BME280;6591;51.446;5.404;2023-02-12T00:51:13;103531.84;;;15.15;48.19
13050;BME280;6591;51.446;5.404;2023-02-12T00:53:42;103520.28;;;15.13;48.34
13050;BME280;6591;51.446;5.404;2023-02-12T00:56:09;103520.28;;;15.13;48.24
13050;BME280;6591;51.446;5.404;2023-02-12T00:58:36;103526.50;;;15.15;48.44
13050;BME280;6591;51.446;5.404;2023-02-12T01:01:06;103527.38;;;15.16;48.44
13050;BME280;6591;51.446;5.404;2023-02-12T01:03:35;103528.25;;;15.16;48.07
13050;BME280;6591;51.446;5.404;2023-02-12T01:06:02;103521.13;;;15.15;48.29
13050;BME280;6591;51.446;5.404;2023-02-12T01:08:54;103521.22;;;15.12;48.44
13050;BME280;6591;51.446;5.404;2023-02-12T01:12:10;103525.69;;;15.10;48.59
13050;BME280;6591;51.446;5.404;2023-02-12T01:14:37;103529.25;;;15.11;48.28
13050;BME280;6591;51.446;5.404;2023-02-12T01:17:07;103526.56;;;15.12;48.17
13050;BME280;6591;51.446;5.404;2023-02-12T01:19:34;103520.28;;;15.13;48.21
13050;BME280;6591;51.446;5.404;2023-02-12T01:22:01;103518.47;;;15.14;48.48
13050;BME280;6591;51.446;5.404;2023-02-12T01:24:28;103525.69;;;15.12;48.28
13050;BME280;6591;51.446;5.404;2023-02-12T01:26:57;103520.31;;;15.12;48.13
13050;BME280;6591;51.446;5.404;2023-02-12T01:29:24;103521.22;;;15.12;48.31
13050;BME280;6591;51.446;5.404;2023-02-12T01:31:51;103522.13;;;15.11;48.26
13050;BME280;6591;51.446;5.404;2023-02-12T01:34:18;103523.00;;;15.12;47.93
13050;BME280;6591;51.446;5.404;2023-02-12T01:36:46;103528.31;;;15.13;48.38
13050;BME280;6591;51.446;5.404;2023-02-12T01:39:13;103521.22;;;15.11;48.24
13050;BME280;6591;51.446;5.404;2023-02-12T01:41:43;103523.03;;;15.10;48.04
13050;BME280;6591;51.446;5.404;2023-02-12T01:44:17;103516.78;;;15.10;47.96
13050;BME280;6591;51.446;5.404;2023-02-12T01:46:49;103517.69;;;15.10;48.00
13050;BME280;6591;51.446;5.404;2023-02-12T01:49:24;103517.69;;;15.09;47.96
13050;BME280;6591;51.446;5.404;2023-02-12T01:54:35;103509.66;;;15.09;47.91
13050;BME280;6591;51.446;5.404;2023-02-12T01:57:05;103510.56;;;15.09;48.28
13050;BME280;6591;51.446;5.404;2023-02-12T01:59:35;103503.44;;;15.08;48.18
13050;BME280;6591;51.446;5.404;2023-02-12T02:02:04;103503.44;;;15.08;48.04
13050;BME280;6591;51.446;5.404;2023-02-12T02:04:46;103504.41;;;15.04;47.98
13050;BME280;6591;51.446;5.404;2023-02-12T02:07:15;103507.00;;;15.07;48.02
13050;BME280;6591;51.446;5.404;2023-02-12T02:09:43;103505.28;;;15.06;47.70
13050;BME280;6591;51.446;5.404;2023-02-12T02:12:10;103492.81;;;15.05;47.98
13050;BME280;6591;51.446;5.404;2023-02-12T02:14:59;103499.09;;;15.03;48.03
13050;BME280;6591;51.446;5.404;2023-02-12T02:26:58;103501.97;;;14.94;48.20
13050;BME280;6591;51.446;5.404;2023-02-12T02:38:40;103507.31;;;14.94;48.17
13050;BME280;6591;51.446;5.404;2023-02-12T02:41:38;103506.44;;;14.92;48.37
13050;BME280;6591;51.446;5.404;2023-02-12T02:44:16;103504.63;;;14.95;48.17
13050;BME280;6591;51.446;5.404;2023-02-12T02:46:49;103502.75;;;14.99;48.31
13050;BME280;6591;51.446;5.404;2023-02-12T02:49:38;103502.75;;;14.99;48.14
13050;BME280;6591;51.446;5.404;2023-02-12T02:52:14;103508.00;;;15.03;48.30
13050;BME280;6591;51.446;5.404;2023-02-12T02:54:49;103509.75;;;15.06;48.20
13050;BME280;6591;51.446;5.404;2023-02-12T02:57:32;103510.63;;;15.06;48.12
13050;BME280;6591;51.446;5.404;2023-02-12T03:00:19;103508.88;;;15.05;48.16
13050;BME280;6591;51.446;5.404;2023-02-12T03:02:55;103503.44;;;15.08;47.96
13050;BME280;6591;51.446;5.404;2023-02-12T03:05:36;103505.28;;;15.06;47.97
13050;BME280;6591;51.446;5.404;2023-02-12T03:08:16;103506.16;;;15.07;47.91
13050;BME280;6591;51.446;5.404;2023-02-12T03:11:01;103497.28;;;15.05;47.93
13050;BME280;6591;51.446;5.404;2023-02-12T03:13:42;103502.63;;;15.05;47.87
13050;BME280;6591;51.446;5.404;2023-02-12T03:16:25;103499.97;;;15.03;48.02
13050;BME280;6591;51.446;5.404;2023-02-12T03:19:02;103500.03;;;15.00;48.05
13050;BME280;6591;51.446;5.404;2023-02-12T03:21:40;103489.38;;;14.99;48.06
13050;BME280;6591;51.446;5.404;2023-02-12T03:24:43;103499.25;;;14.95;48.18
13050;BME280;6591;51.446;5.404;2023-02-12T03:27:37;103493.91;;;14.97;47.98
13050;BME280;6591;51.446;5.404;2023-02-12T03:30:07;103492.06;;;14.97;47.95
13050;BME280;6591;51.446;5.404;2023-02-12T03:38:46;103500.28;;;14.90;48.38
13050;BME280;6591;51.446;5.404;2023-02-12T03:41:40;103501.97;;;14.92;48.38
13050;BME280;6591;51.446;5.404;2023-02-12T03:44:38;103497.50;;;14.93;48.12
13050;BME280;6591;51.446;5.404;2023-02-12T03:53:04;103485.91;;;14.94;48.03
13050;BME280;6591;51.446;5.404;2023-02-12T03:55:40;103500.19;;;14.93;48.00
13050;BME280;6591;51.446;5.404;2023-02-12T03:58:14;103495.72;;;14.93;47.96
13050;BME280;6591;51.446;5.404;2023-02-12T04:00:44;103493.06;;;14.93;47.99
13050;BME280;6591;51.446;5.404;2023-02-12T04:03:12;103496.59;;;14.95;47.80
13050;BME280;6591;51.446;5.404;2023-02-12T04:05:39;103493.00;;;14.96;48.03
13050;BME280;6591;51.446;5.404;2023-02-12T04:08:08;103496.50;;;14.98;47.96
13050;BME280;6591;51.446;5.404;2023-02-12T04:13:27;103494.72;;;14.99;47.95
13050;BME280;6591;51.446;5.404;2023-02-12T04:16:21;103494.75;;;14.97;47.89
13050;BME280;6591;51.446;5.404;2023-02-12T04:18:52;103500.88;;;15.02;47.67
13050;BME280;6591;51.446;5.404;2023-02-12T04:21:55;103503.66;;;14.98;47.95
13050;BME280;6591;51.446;5.404;2023-02-12T04:27:29;103510.78;;;14.97;47.93
13050;BME280;6591;51.446;5.404;2023-02-12T04:30:11;103508.13;;;14.97;47.96
13050;BME280;6591;51.446;5.404;2023-02-12T04:32:45;103510.78;;;14.97;47.75
13050;BME280;6591;51.446;5.404;2023-02-12T04:35:50;103519.03;;;14.88;47.90
13050;BME280;6591;51.446;5.404;2023-02-12T04:38:39;103519.00;;;14.90;47.65
13050;BME280;6591;51.446;5.404;2023-02-12T04:41:12;103515.34;;;14.92;48.00
13050;BME280;6591;51.446;5.404;2023-02-12T04:43:42;103521.56;;;14.94;47.98
13050;BME280;6591;51.446;5.404;2023-02-12T04:46:09;103523.34;;;14.95;47.99
13050;BME280;6591;51.446;5.404;2023-02-12T04:48:51;103520.66;;;14.95;47.97
13050;BME280;6591;51.446;5.404;2023-02-12T04:51:19;103521.50;;;14.97;47.93
13050;BME280;6591;51.446;5.404;2023-02-12T04:53:47;103514.41;;;14.96;48.09
13050;BME280;6591;51.446;5.404;2023-02-12T04:56:15;103523.28;;;14.98;47.65
13050;BME280;6591;51.446;5.404;2023-02-12T04:58:42;103523.28;;;14.98;47.90
13050;BME280;6591;51.446;5.404;2023-02-12T05:01:10;103514.34;;;14.99;47.86
13050;BME280;6591;51.446;5.404;2023-02-12T05:03:37;103509.88;;;15.00;47.71
13050;BME280;6591;51.446;5.404;2023-02-12T05:06:09;103523.28;;;14.98;47.84
13050;BME280;6591;51.446;5.404;2023-02-12T05:08:36;103516.09;;;15.00;47.77
13050;BME280;6591;51.446;5.404;2023-02-12T05:11:06;103516.13;;;14.99;47.83
13050;BME280;6591;51.446;5.404;2023-02-12T05:13:34;103517.00;;;15.01;47.87
13050;BME280;6591;51.446;5.404;2023-02-12T05:16:06;103523.16;;;15.03;47.78
13050;BME280;6591;51.446;5.404;2023-02-12T05:18:34;103523.16;;;15.04;47.91
13050;BME280;6591;51.446;5.404;2023-02-12T05:21:03;103528.47;;;15.06;47.49
13050;BME280;6591;51.446;5.404;2023-02-12T05:23:35;103530.25;;;15.07;47.74
13050;BME280;6591;51.446;5.404;2023-02-12T05:26:13;103524.03;;;15.05;47.69
13050;BME280;6591;51.446;5.404;2023-02-12T05:28:40;103520.53;;;15.01;47.43
13050;BME280;6591;51.446;5.404;2023-02-12T05:31:10;103524.16;;;14.99;47.85
13050;BME280;6591;51.446;5.404;2023-02-12T05:33:46;103528.63;;;14.98;47.73
13050;BME280;6591;51.446;5.404;2023-02-12T05:36:20;103526.84;;;14.97;47.73
13050;BME280;6591;51.446;5.404;2023-02-12T05:38:48;103533.97;;;14.98;47.51
13050;BME280;6591;51.446;5.404;2023-02-12T05:41:19;103531.28;;;14.98;47.52
13050;BME280;6591;51.446;5.404;2023-02-12T05:43:49;103525.06;;;14.98;47.47
13050;BME280;6591;51.446;5.404;2023-02-12T05:46:18;103532.28;;;14.94;47.68
13050;BME280;6591;51.446;5.404;2023-02-12T05:48:45;103526.06;;;14.92;47.76
13050;BME280;6591;51.446;5.404;2023-02-12T05:51:17;103527.00;;;14.91;47.75
13050;BME280;6591;51.446;5.404;2023-02-12T05:53:47;103527.91;;;14.90;47.48
13050;BME280;6591;51.446;5.404;2023-02-12T05:56:18;103528.81;;;14.89;47.86
13050;BME280;6591;51.446;5.404;2023-02-12T05:58:52;103530.59;;;14.90;47.55
13050;BME280;6591;51.446;5.404;2023-02-12T06:01:28;103528.81;;;14.89;47.63
13050;BME280;6591;51.446;5.404;2023-02-12T06:03:57;103532.38;;;14.90;47.45
13050;BME280;6591;51.446;5.404;2023-02-12T06:06:26;103535.94;;;14.90;47.58
13050;BME280;6591;51.446;5.404;2023-02-12T06:08:56;103536.81;;;14.91;47.44
13050;BME280;6591;51.446;5.404;2023-02-12T06:11:24;103535.03;;;14.91;47.62
13050;BME280;6591;51.446;5.404;2023-02-12T06:13:51;103534.97;;;14.93;47.75
13050;BME280;6591;51.446;5.404;2023-02-12T06:16:26;103535.03;;;14.91;47.44
13050;BME280;6591;51.446;5.404;2023-02-12T06:18:55;103540.31;;;14.93;47.65
13050;BME280;6591;51.446;5.404;2023-02-12T06:21:25;103538.56;;;14.92;47.52
13050;BME280;6591;51.446;5.404;2023-02-12T06:23:53;103534.06;;;14.94;47.42
13050;BME280;6591;51.446;5.404;2023-02-12T06:26:21;103534.94;;;14.94;47.37
13050;BME280;6591;51.446;5.404;2023-02-12T06:28:49;103538.50;;;14.96;47.42
13050;BME280;6591;51.446;5.404;2023-02-12T06:31:23;103543.88;;;14.95;47.53
13050;BME280;6591;51.446;5.404;2023-02-12T06:33:52;103544.75;;;14.95;47.57
13050;BME280;6591;51.446;5.404;2023-02-12T06:36:20;103547.41;;;14.97;47.38
13050;BME280;6591;51.446;5.404;2023-02-12T06:38:48;103543.84;;;14.96;47.52
13050;BME280;6591;51.446;5.404;2023-02-12T06:41:16;103548.25;;;14.97;47.62
13050;BME280;6591;51.446;5.404;2023-02-12T06:43:43;103548.25;;;14.97;47.42
13050;BME280;6591;51.446;5.404;2023-02-12T06:46:11;103550.94;;;14.97;47.37
13050;BME280;6591;51.446;5.404;2023-02-12T06:48:39;103549.13;;;14.98;47.43
13050;BME280;6591;51.446;5.404;2023-02-12T06:51:16;103549.22;;;14.95;47.50
13050;BME280;6591;51.446;5.404;2023-02-12T06:53:44;103551.91;;;14.95;47.63
13050;BME280;6591;51.446;5.404;2023-02-12T06:56:12;103555.44;;;14.95;47.57
13050;BME280;6591;51.446;5.404;2023-02-12T06:58:43;103555.50;;;14.92;47.77
13050;BME280;6591;51.446;5.404;2023-02-12T07:01:17;103551.09;;;14.90;47.54
13050;BME280;6591;51.446;5.404;2023-02-12T07:03:53;103554.69;;;14.89;47.54
13050;BME280;6591;51.446;5.404;2023-02-12T07:06:22;103560.91;;;14.89;47.52
13050;BME280;6591;51.446;5.404;2023-02-12T07:08:49;103560.91;;;14.89;47.72
13050;BME280;6591;51.446;5.404;2023-02-12T07:11:17;103564.47;;;14.90;47.48
13050;BME280;6591;51.446;5.404;2023-02-12T07:13:48;103569.81;;;14.91;47.48
13050;BME280;6591;51.446;5.404;2023-02-12T07:16:15;103568.88;;;14.92;47.55
13050;BME280;6591;51.446;5.404;2023-02-12T07:18:44;103569.81;;;14.91;47.33
13050;BME280;6591;51.446;5.404;2023-02-12T07:21:13;103574.22;;;14.92;47.44
13050;BME280;6591;51.446;5.404;2023-02-12T07:23:45;103576.00;;;14.92;47.55
13050;BME280;6591;51.446;5.404;2023-02-12T07:26:17;103567.06;;;14.93;47.46
13050;BME280;6591;51.446;5.404;2023-02-12T07:28:45;103567.97;;;14.93;47.48
13050;BME280;6591;51.446;5.404;2023-02-12T07:31:17;103569.75;;;14.93;47.52
13050;BME280;6591;51.446;5.404;2023-02-12T07:33:45;103577.75;;;14.94;47.51
13050;BME280;6591;51.446;5.404;2023-02-12T07:36:16;103583.13;;;14.94;47.54
13050;BME280;6591;51.446;5.404;2023-02-12T07:38:44;103590.22;;;14.95;47.74
13050;BME280;6591;51.446;5.404;2023-02-12T07:41:32;103589.38;;;14.93;47.71
13050;BME280;6591;51.446;5.404;2023-02-12T07:44:04;103591.13;;;14.96;47.66
13050;BME280;6591;51.446;5.404;2023-02-12T07:46:41;103589.31;;;14.96;47.86
13050;BME280;6591;51.446;5.404;2023-02-12T07:49:14;103588.38;;;14.99;47.42
13050;BME280;6591;51.446;5.404;2023-02-12T07:51:41;103594.53;;;15.02;47.88
13050;BME280;6591;51.446;5.404;2023-02-12T07:54:10;103590.94;;;15.03;47.76
13050;BME280;6591;51.446;5.404;2023-02-12T07:56:39;103587.34;;;15.06;47.86
13050;BME280;6591;51.446;5.404;2023-02-12T07:59:14;103587.34;;;15.06;47.83
13050;BME280;6591;51.446;5.404;2023-02-12T08:01:48;103596.16;;;15.11;47.90
13050;BME280;6591;51.446;5.404;2023-02-12T08:04:19;103597.88;;;15.13;47.73
13050;BME280;6591;51.446;5.404;2023-02-12T08:06:50;103594.25;;;15.17;47.88
13050;BME280;6591;51.446;5.404;2023-02-12T08:09:22;103597.72;;;15.22;48.23
13050;BME280;6591;51.446;5.404;2023-02-12T08:11:50;103598.50;;;15.27;47.95
13050;BME280;6591;51.446;5.404;2023-02-12T08:14:20;103593.97;;;15.31;47.87
13050;BME280;6591;51.446;5.404;2023-02-12T08:16:48;103601.00;;;15.37;47.90
13050;BME280;6591;51.446;5.404;2023-02-12T08:19:16;103595.56;;;15.40;47.69
13050;BME280;6591;51.446;5.404;2023-02-12T08:21:52;103595.50;;;15.43;47.87
13050;BME280;6591;51.446;5.404;2023-02-12T08:24:20;103601.66;;;15.46;47.65
13050;BME280;6591;51.446;5.404;2023-02-12T08:26:50;103602.47;;;15.50;47.79
13050;BME280;6591;51.446;5.404;2023-02-12T08:29:22;103598.81;;;15.55;47.99
13050;BME280;6591;51.446;5.404;2023-02-12T08:31:56;103602.34;;;15.59;47.95
13050;BME280;6591;51.446;5.404;2023-02-12T08:34:35;103604.03;;;15.63;47.70
13050;BME280;6591;51.446;5.404;2023-02-12T08:37:06;103604.78;;;15.70;47.82
13050;BME280;6591;51.446;5.404;2023-02-12T08:39:33;103609.16;;;15.74;47.63
13050;BME280;6591;51.446;5.404;2023-02-12T08:42:00;103606.38;;;15.77;47.99
13050;BME280;6591;51.446;5.404;2023-02-12T08:44:28;103616.09;;;15.82;47.72
13050;BME280;6591;51.446;5.404;2023-02-12T08:46:55;103607.06;;;15.86;47.35
13050;BME280;6591;51.446;5.404;2023-02-12T08:49:27;103606.03;;;15.92;47.57
13050;BME280;6591;51.446;5.404;2023-02-12T08:51:56;103605.94;;;15.96;47.42
13050;BME280;6591;51.446;5.404;2023-02-12T08:54:27;103613.88;;;16.01;47.42
13050;BME280;6591;51.446;5.404;2023-02-12T08:57:00;103613.78;;;16.05;47.46
13050;BME280;6591;51.446;5.404;2023-02-12T08:59:28;103610.97;;;16.10;47.36
13050;BME280;6591;51.446;5.404;2023-02-12T09:01:55;103610.09;;;16.09;47.18
13050;BME280;6591;51.446;5.404;2023-02-12T09:04:26;103619.94;;;16.09;47.27
13050;BME280;6591;51.446;5.404;2023-02-12T09:06:54;103619.81;;;16.14;47.14
13050;BME280;6591;51.446;5.404;2023-02-12T09:09:22;103617.00;;;16.20;47.39
13050;BME280;6591;51.446;5.404;2023-02-12T09:11:49;103615.06;;;16.26;47.54
13050;BME280;6591;51.446;5.404;2023-02-12T09:14:18;103620.22;;;16.34;47.44
13050;BME280;6591;51.446;5.404;2023-02-12T09:16:53;103624.53;;;16.41;47.14
13050;BME280;6591;51.446;5.404;2023-02-12T09:19:21;103612.72;;;16.48;47.39
13050;BME280;6591;51.446;5.404;2023-02-12T09:21:53;103612.53;;;16.54;47.39
13050;BME280;6591;51.446;5.404;2023-02-12T09:24:24;103623.09;;;16.63;47.19
13050;BME280;6591;51.446;5.404;2023-02-12T09:26:51;103619.41;;;16.67;47.25
13050;BME280;6591;51.446;5.404;2023-02-12T09:29:18;103630.91;;;16.72;47.08
13050;BME280;6591;51.446;5.404;2023-02-12T09:31:45;103622.75;;;16.75;46.97
13050;BME280;6591;51.446;5.404;2023-02-12T09:34:13;103624.53;;;16.76;46.89
13050;BME280;6591;51.446;5.404;2023-02-12T09:36:40;103627.19;;;16.78;46.57
13050;BME280;6591;51.446;5.404;2023-02-12T09:39:07;103621.88;;;16.75;46.63
13050;BME280;6591;51.446;5.404;2023-02-12T09:42:06;103619.41;;;16.67;46.40
13050;BME280;6591;51.446;5.404;2023-02-12T09:47:42;103622.25;;;16.61;46.63
13050;BME280;6591;51.446;5.404;2023-02-12T09:53:00;103619.28;;;16.72;46.49
13050;BME280;6591;51.446;5.404;2023-02-12T09:55:33;103621.84;;;16.76;46.72
13050;BME280;6591;51.446;5.404;2023-02-12T09:58:11;103623.50;;;16.82;46.40
13050;BME280;6591;51.446;5.404;2023-02-12T10:00:40;103632.16;;;16.91;46.14
13050;BME280;6591;51.446;5.404;2023-02-12T10:03:14;103630.38;;;16.92;46.26
13050;BME280;6591;51.446;5.404;2023-02-12T10:05:58;103627.72;;;16.90;46.05
13050;BME280;6591;51.446;5.404;2023-02-12T10:08:50;103633.16;;;16.89;45.92
13050;BME280;6591;51.446;5.404;2023-02-12T10:11:53;103635.00;;;16.85;45.83
13050;BME280;6591;51.446;5.404;2023-02-12T10:14:56;103633.34;;;16.81;45.74
13050;BME280;6591;51.446;5.404;2023-02-12T10:26:47;103634.22;;;16.82;45.58
13050;BME280;6591;51.446;5.404;2023-02-12T10:29:26;103638.63;;;16.84;45.95
13050;BME280;6591;51.446;5.404;2023-02-12T10:32:01;103634.09;;;16.86;45.15
13050;BME280;6591;51.446;5.404;2023-02-12T10:34:35;103634.94;;;16.88;45.37
13050;BME280;6591;51.446;5.404;2023-02-12T10:37:34;103644.78;;;16.89;45.71
13050;BME280;6591;51.446;5.404;2023-02-12T10:40:20;103636.66;;;16.91;45.67
13050;BME280;6591;51.446;5.404;2023-02-12T10:42:51;103637.34;;;16.99;45.61
13050;BME280;6591;51.446;5.404;2023-02-12T10:45:24;103629.16;;;17.04;45.62
13050;BME280;6591;51.446;5.404;2023-02-12T10:48:18;103637.09;;;17.08;45.39
13050;BME280;6591;51.446;5.404;2023-02-12T10:53:45;103631.22;;;17.26;45.49
13050;BME280;6591;51.446;5.404;2023-02-12T10:56:24;103638.09;;;17.36;45.33
13050;BME280;6591;51.446;5.404;2023-02-12T10:58:56;103629.72;;;17.47;45.61
13050;BME280;6591;51.446;5.404;2023-02-12T11:04:00;103625.72;;;17.62;44.84
13050;BME280;6591;51.446;5.404;2023-02-12T11:07:07;103634.50;;;17.68;44.85
13050;BME280;6591;51.446;5.404;2023-02-12T11:09:36;103633.22;;;17.80;45.38
13050;BME280;6591;51.446;5.404;2023-02-12T11:12:22;103622.19;;;17.89;44.89
13050;BME280;6591;51.446;5.404;2023-02-12T11:14:59;103617.28;;;18.02;44.83
13050;BME280;6591;51.446;5.404;2023-02-12T11:17:35;103616.00;;;18.15;44.62
13050;BME280;6591;51.446;5.404;2023-02-12T11:23:01;103614.25;;;18.40;44.97
13050;BME280;6591;51.446;5.404;2023-02-12T11:25:33;103607.50;;;18.55;44.91
13050;BME280;6591;51.446;5.404;2023-02-12T11:28:17;103610.66;;;18.68;44.72
13050;BME280;6591;51.446;5.404;2023-02-12T11:31:03;103609.31;;;18.79;44.52
13050;BME280;6591;51.446;5.404;2023-02-12T11:33:43;103609.81;;;18.90;44.24
13050;BME280;6591;51.446;5.404;2023-02-12T11:36:30;103609.59;;;18.96;44.18
13050;BME280;6591;51.446;5.404;2023-02-12T11:39:00;103604.75;;;19.06;44.24
13050;BME280;6591;51.446;5.404;2023-02-12T11:41:38;103607.56;;;19.03;43.38
13050;BME280;6591;51.446;5.404;2023-02-12T11:44:38;103598.84;;;18.96;43.56
13050;BME280;6591;51.446;5.404;2023-02-12T11:47:18;103592.41;;;19.00;43.20
13050;BME280;6591;51.446;5.404;2023-02-12T11:49:56;103586.03;;;19.03;43.25
13050;BME280;6591;51.446;5.404;2023-02-12T11:52:36;103595.75;;;19.07;43.42
13050;BME280;6591;51.446;5.404;2023-02-12T11:55:22;103596.50;;;19.11;42.91
13050;BME280;6591;51.446;5.404;2023-02-12T11:57:53;103592.66;;;19.18;43.23
13050;BME280;6591;51.446;5.404;2023-02-12T12:03:39;103587.22;;;19.19;43.05
13050;BME280;6591;51.446;5.404;2023-02-12T12:06:25;103588.91;;;19.22;42.89
13050;BME280;6591;51.446;5.404;2023-02-12T12:09:15;103586.16;;;19.23;42.86
13050;BME280;6591;51.446;5.404;2023-02-12T12:14:45;103579.91;;;19.23;42.78
13050;BME280;6591;51.446;5.404;2023-02-12T12:17:57;103579.00;;;19.22;42.52
13050;BME280;6591;51.446;5.404;2023-02-12T12:20:52;103578.09;;;19.23;42.56
13050;BME280;6591;51.446;5.404;2023-02-12T12:26:09;103577.16;;;19.24;42.69
13050;BME280;6591;51.446;5.404;2023-02-12T12:31:37;103568.16;;;19.25;42.38
13050;BME280;6591;51.446;5.404;2023-02-12T12:34:19;103563.78;;;19.21;42.46
13050;BME280;6591;51.446;5.404;2023-02-12T12:37:21;103567.53;;;19.17;42.24
13050;BME280;6591;51.446;5.404;2023-02-12T12:40:46;103563.22;;;19.13;42.27
13050;BME280;6591;51.446;5.404;2023-02-12T12:43:37;103560.47;;;19.15;42.45
13050;BME280;6591;51.446;5.404;2023-02-12T12:46:33;103562.38;;;19.11;41.94
13050;BME280;6591;51.446;5.404;2023-02-12T12:52:10;103553.59;;;19.06;41.71
13050;BME280;6591;51.446;5.404;2023-02-12T12:58:08;103540.50;;;18.95;41.95
13050;BME280;6591;51.446;5.404;2023-02-12T13:01:09;103543.38;;;18.91;41.99
13050;BME280;6591;51.446;5.404;2023-02-12T13:03:59;103540.69;;;18.91;41.98
13050;BME280;6591;51.446;5.404;2023-02-12T13:15:31;103525.78;;;18.57;41.98
13050;BME280;6591;51.446;5.404;2023-02-12T13:18:51;103525.16;;;18.48;42.01
13050;BME280;6591;51.446;5.404;2023-02-12T13:24:49;103516.66;;;18.35;41.92
13050;BME280;6591;51.446;5.404;2023-02-12T13:27:34;103522.09;;;18.34;41.50
13050;BME280;6591;51.446;5.404;2023-02-12T13:30:37;103508.81;;;18.29;42.30
13050;BME280;6591;51.446;5.404;2023-02-12T13:35:46;103511.53;;;18.28;41.77
13050;BME280;6591;51.446;5.404;2023-02-12T13:38:25;103521.66;;;18.21;41.85
13050;BME280;6591;51.446;5.404;2023-02-12T13:41:00;103516.47;;;18.15;41.29
13050;BME280;6591;51.446;5.404;2023-02-12T13:48:59;103505.72;;;17.89;41.73
13050;BME280;6591;51.446;5.404;2023-02-12T13:51:53;103509.53;;;17.82;41.91
13050;BME280;6591;51.446;5.404;2023-02-12T13:57:18;103500.88;;;17.72;41.96
13050;BME280;6591;51.446;5.404;2023-02-12T13:59:54;103501.97;;;17.66;41.89
13050;BME280;6591;51.446;5.404;2023-02-12T14:05:24;103496.13;;;17.52;42.13
13050;BME280;6591;51.446;5.404;2023-02-12T14:07:58;103495.94;;;17.58;42.16
13050;BME280;6591;51.446;5.404;2023-02-12T14:10:41;103492.28;;;17.61;42.33
13050;BME280;6591;51.446;5.404;2023-02-12T14:13:18;103497.63;;;17.62;42.32
13050;BME280;6591;51.446;5.404;2023-02-12T14:22:55;103495.97;;;17.57;42.33
13050;BME280;6591;51.446;5.404;2023-02-12T14:27:52;103487.91;;;17.57;42.49
13050;BME280;6591;51.446;5.404;2023-02-12T14:35:40;103483.47;;;17.56;42.82
13050;BME280;6591;51.446;5.404;2023-02-12T14:40:48;103484.44;;;17.53;42.26
13050;BME280;6591;51.446;5.404;2023-02-12T14:43:29;103489.06;;;17.48;42.46
13050;BME280;6591;51.446;5.404;2023-02-12T14:48:56;103486.59;;;17.42;42.35
13050;BME280;6591;51.446;5.404;2023-02-12T14:51:58;103477.91;;;17.32;42.55
13050;BME280;6591;51.446;5.404;2023-02-12T14:54:33;103476.13;;;17.33;42.36
13050;BME280;6591;51.446;5.404;2023-02-12T15:06:35;103474.75;;;17.20;42.69
13050;BME280;6591;51.446;5.404;2023-02-12T15:09:18;103472.81;;;17.25;42.70
13050;BME280;6591;51.446;5.404;2023-02-12T15:11:56;103472.69;;;17.28;42.67
13050;BME280;6591;51.446;5.404;2023-02-12T15:14:31;103472.69;;;17.28;42.85
13050;BME280;6591;51.446;5.404;2023-02-12T15:17:21;103463.72;;;17.29;42.62
13050;BME280;6591;51.446;5.404;2023-02-12T15:20:03;103466.31;;;17.32;42.67
13050;BME280;6591;51.446;5.404;2023-02-12T15:22:41;103467.28;;;17.29;42.54
13050;BME280;6591;51.446;5.404;2023-02-12T15:25:30;103462.94;;;17.25;42.74
13050;BME280;6591;51.446;5.404;2023-02-12T15:28:03;103462.03;;;17.26;42.65
13050;BME280;6591;51.446;5.404;2023-02-12T15:30:35;103459.41;;;17.23;42.49
13050;BME280;6591;51.446;5.404;2023-02-12T15:33:06;103454.06;;;17.22;42.59
13050;BME280;6591;51.446;5.404;2023-02-12T15:35:37;103462.13;;;17.22;42.69
13050;BME280;6591;51.446;5.404;2023-02-12T15:38:06;103459.56;;;17.19;42.63
13050;BME280;6591;51.446;5.404;2023-02-12T15:40:34;103458.69;;;17.18;43.10
13050;BME280;6591;51.446;5.404;2023-02-12T15:43:04;103453.44;;;17.14;42.73
13050;BME280;6591;51.446;5.404;2023-02-12T15:45:34;103454.44;;;17.11;42.66
13050;BME280;6591;51.446;5.404;2023-02-12T15:50:50;103461.72;;;17.06;42.90
13050;BME280;6591;51.446;5.404;2023-02-12T15:53:22;103455.41;;;17.09;42.63
13050;BME280;6591;51.446;5.404;2023-02-12T15:55:52;103453.56;;;17.11;42.77
13050;BME280;6591;51.446;5.404;2023-02-12T15:58:26;103457.19;;;17.08;42.73
13050;BME280;6591;51.446;5.404;2023-02-12T16:01:02;103448.25;;;17.08;42.70